Time;durP1;ratioP1;P1;durP2;ratioP2;P2;SDS_P1;SDS_P2;PMS_P1;PMS_P2;Temp;Humidity;BMP_temperature;BMP_pressure;BME280_temperature;BME280_humidity;BME280_pressure;Samples;Min_cycle;Max_cycle;Signal;HPM_P1;HPM_P2
2022/10/18 00:00:26;;;;;;;3.97;3.57;;;14.40;99.90;;;;;;4993233;28;20863;-82
2022/10/18 00:02:52;;;;;;;5.70;3.33;;;14.50;99.90;;;;;;4988700;28;20260;-85
2022/10/18 00:05:17;;;;;;;6.10;2.90;;;14.50;99.90;;;;;;4986224;28;20256;-83
2022/10/18 00:07:43;;;;;;;4.43;2.73;;;14.40;99.90;;;;;;4998635;28;20224;-82
2022/10/18 00:10:09;;;;;;;6.33;3.60;;;14.40;99.90;;;;;;4950815;28;20203;-82
2022/10/18 00:12:36;;;;;;;6.23;3.33;;;14.30;99.90;;;;;;4990962;28;20219;-81
2022/10/18 00:15:04;;;;;;;6.47;3.53;;;14.20;99.90;;;;;;4991272;28;20220;-82
2022/10/18 00:17:30;;;;;;;5.90;3.67;;;14.10;99.90;;;;;;4976361;28;20261;-83
2022/10/18 00:19:55;;;;;;;25.60;5.53;;;14.10;99.90;;;;;;4963914;28;20319;-82
2022/10/18 00:22:21;;;;;;;18.87;4.47;;;14.00;99.90;;;;;;4967451;28;20315;-83
2022/10/18 00:24:47;;;;;;;70.13;5.57;;;14.10;99.90;;;;;;4993432;28;20555;-81
2022/10/18 00:27:12;;;;;;;23.67;4.53;;;14.00;99.90;;;;;;4992414;28;20220;-85
2022/10/18 00:29:38;;;;;;;8.60;3.00;;;14.00;99.90;;;;;;4989042;28;20231;-83
2022/10/18 00:32:04;;;;;;;4.23;2.87;;;14.00;99.90;;;;;;4984979;28;20760;-83
2022/10/18 00:34:30;;;;;;;9.30;3.30;;;14.00;99.90;;;;;;4985810;28;20192;-83
2022/10/18 00:36:55;;;;;;;12.60;3.70;;;13.90;99.90;;;;;;4994027;28;20653;-82
2022/10/18 00:39:21;;;;;;;5.43;3.13;;;13.90;99.90;;;;;;4987337;28;20611;-81
2022/10/18 00:41:48;;;;;;;19.90;3.50;;;13.90;99.90;;;;;;4985743;28;20968;-84
2022/10/18 00:44:16;;;;;;;9.90;4.67;;;13.90;99.90;;;;;;5004100;28;20583;-83
2022/10/18 00:46:45;;;;;;;6.90;4.20;;;13.90;99.90;;;;;;5009625;28;20341;-82
2022/10/18 00:49:37;;;;;;;4.80;2.83;;;13.90;99.90;;;;;;4996005;28;20284;-83
2022/10/18 00:52:06;;;;;;;7.87;3.63;;;13.90;99.90;;;;;;4985886;28;20212;-84
2022/10/18 00:54:37;;;;;;;4.67;3.03;;;14.00;99.90;;;;;;4986111;28;20254;-82
2022/10/18 00:57:05;;;;;;;5.17;3.13;;;14.00;99.90;;;;;;4994937;28;20216;-84
2022/10/18 00:59:31;;;;;;;10.90;3.30;;;14.00;99.90;;;;;;4963801;28;20252;-80
2022/10/18 01:01:57;;;;;;;5.20;3.10;;;14.00;99.90;;;;;;4970936;28;20513;-80
2022/10/18 01:04:23;;;;;;;19.47;3.80;;;13.90;99.90;;;;;;4968354;28;20284;-80
2022/10/18 01:07:21;;;;;;;18.40;4.17;;;13.80;99.90;;;;;;4984956;28;20188;-81
2022/10/18 01:09:53;;;;;;;20.27;3.03;;;13.80;99.90;;;;;;4996174;28;20228;-82
2022/10/18 01:12:43;;;;;;;27.60;4.23;;;13.80;99.90;;;;;;4986161;28;20224;-82
2022/10/18 01:15:11;;;;;;;3.80;2.50;;;13.80;99.90;;;;;;4985064;28;20319;-84
2022/10/18 01:18:06;;;;;;;9.30;3.33;;;13.70;99.90;;;;;;4984936;28;20287;-83
2022/10/18 01:21:05;;;;;;;19.50;2.90;;;13.70;99.90;;;;;;4989505;28;20646;-83
2022/10/18 01:24:02;;;;;;;13.87;3.63;;;13.60;99.90;;;;;;4974894;28;20224;-80
2022/10/18 01:26:55;;;;;;;5.03;2.40;;;13.60;99.90;;;;;;4984814;28;20669;-80
2022/10/18 01:29:24;;;;;;;3.63;2.93;;;13.70;99.90;;;;;;5001996;28;20242;-80
2022/10/18 01:31:55;;;;;;;4.23;2.70;;;13.70;99.90;;;;;;4994731;28;20842;-82
2022/10/18 01:34:25;;;;;;;3.27;2.70;;;13.70;99.90;;;;;;5007440;28;20932;-80
2022/10/18 01:36:54;;;;;;;3.90;2.50;;;13.70;99.90;;;;;;5011198;28;21024;-81
2022/10/18 01:39:25;;;;;;;5.60;3.23;;;13.70;99.90;;;;;;4980449;28;20246;-81
2022/10/18 01:41:53;;;;;;;2.67;2.47;;;13.70;99.90;;;;;;4988311;28;20218;-82
2022/10/18 01:44:24;;;;;;;9.03;2.10;;;13.70;99.90;;;;;;4988954;28;20238;-83
2022/10/18 01:46:55;;;;;;;11.20;3.43;;;13.70;99.90;;;;;;4983720;28;20658;-80
2022/10/18 01:49:21;;;;;;;4.77;2.10;;;13.60;99.90;;;;;;4999202;28;20235;-81
2022/10/18 01:51:47;;;;;;;10.30;2.93;;;13.60;99.90;;;;;;4967664;28;20188;-81
2022/10/18 01:54:19;;;;;;;8.53;3.43;;;13.60;99.90;;;;;;4967913;28;20251;-80
2022/10/18 01:56:59;;;;;;;3.07;2.23;;;13.60;99.90;;;;;;4979372;28;20218;-81
2022/10/18 01:59:38;;;;;;;5.97;2.90;;;13.60;99.90;;;;;;4990794;28;20269;-81
2022/10/18 02:02:36;;;;;;;7.83;3.60;;;13.50;99.90;;;;;;4984094;28;20709;-83
2022/10/18 02:05:18;;;;;;;11.93;2.60;;;13.40;99.90;;;;;;4984532;28;20253;-82
2022/10/18 02:08:00;;;;;;;5.23;3.37;;;13.30;99.90;;;;;;5008653;28;20227;-82
2022/10/18 02:10:40;;;;;;;10.77;2.30;;;13.10;99.90;;;;;;4988900;28;20645;-80
2022/10/18 02:13:07;;;;;;;3.63;2.53;;;13.10;99.90;;;;;;4991033;28;20184;-80
2022/10/18 02:15:38;;;;;;;11.47;3.00;;;13.00;99.90;;;;;;4977449;28;20219;-83
2022/10/18 02:18:10;;;;;;;2.97;2.73;;;12.90;99.90;;;;;;4986020;28;20605;-79
2022/10/18 02:20:37;;;;;;;20.30;3.10;;;12.80;99.90;;;;;;4984330;28;20232;-83
2022/10/18 02:23:07;;;;;;;2.17;1.53;;;12.80;99.90;;;;;;4986812;28;20218;-82
2022/10/18 02:25:33;;;;;;;14.90;3.23;;;12.80;99.90;;;;;;4992591;28;20199;-82
2022/10/18 02:28:01;;;;;;;3.00;2.23;;;12.80;99.90;;;;;;4993859;28;20188;-84
2022/10/18 02:30:37;;;;;;;6.00;2.73;;;12.80;99.90;;;;;;5009129;28;20951;-81
2022/10/18 02:33:14;;;;;;;11.70;2.80;;;12.80;99.90;;;;;;4986494;28;20614;-80
2022/10/18 02:35:46;;;;;;;8.57;2.60;;;12.80;99.90;;;;;;4984065;28;20220;-80
2022/10/18 02:38:14;;;;;;;6.37;3.13;;;12.80;99.90;;;;;;4987356;28;20251;-79
2022/10/18 02:40:40;;;;;;;4.70;2.80;;;12.80;99.90;;;;;;5003874;28;20991;-79
2022/10/18 02:43:06;;;;;;;16.03;3.53;;;12.80;99.90;;;;;;4983684;28;20188;-79
2022/10/18 02:45:32;;;;;;;3.40;2.10;;;12.90;99.90;;;;;;4983175;28;20579;-80
2022/10/18 02:47:58;;;;;;;3.83;2.40;;;12.90;99.90;;;;;;4990247;28;20275;-79
2022/10/18 02:50:23;;;;;;;5.87;2.57;;;12.90;99.90;;;;;;4985095;28;20716;-84
2022/10/18 02:52:49;;;;;;;4.60;2.67;;;12.90;99.90;;;;;;4968495;28;20756;-82
2022/10/18 02:55:15;;;;;;;3.70;2.57;;;12.90;99.90;;;;;;4936016;28;20239;-81
2022/10/18 02:57:41;;;;;;;4.63;3.27;;;12.90;99.90;;;;;;4986472;28;20231;-83
2022/10/18 03:00:08;;;;;;;2.53;2.33;;;12.80;99.90;;;;;;4988024;28;20239;-82
2022/10/18 03:02:33;;;;;;;13.57;2.70;;;12.80;99.90;;;;;;4988377;28;20223;-79
2022/10/18 03:04:59;;;;;;;3.60;2.90;;;12.80;99.90;;;;;;4987581;28;20223;-82
2022/10/18 03:07:25;;;;;;;4.50;2.87;;;12.80;99.90;;;;;;4986412;28;20206;-83
2022/10/18 03:09:51;;;;;;;2.97;2.30;;;12.80;99.90;;;;;;4986798;28;20227;-80
2022/10/18 03:12:16;;;;;;;5.23;2.90;;;12.80;99.90;;;;;;4987310;28;20250;-80
2022/10/18 03:14:42;;;;;;;5.37;2.93;;;12.80;99.90;;;;;;4986299;28;20278;-82
2022/10/18 03:17:08;;;;;;;6.33;3.33;;;12.90;99.90;;;;;;4980053;28;20231;-79
2022/10/18 03:19:33;;;;;;;8.87;2.83;;;12.90;99.90;;;;;;4953109;28;20283;-82
2022/10/18 03:21:59;;;;;;;4.47;2.90;;;12.90;99.90;;;;;;4995433;28;20180;-82
2022/10/18 03:24:25;;;;;;;3.93;2.33;;;12.90;99.90;;;;;;4988877;28;20581;-84
2022/10/18 03:26:51;;;;;;;16.03;2.53;;;12.90;99.90;;;;;;4973857;28;20229;-83
2022/10/18 03:29:16;;;;;;;5.40;2.70;;;12.80;99.90;;;;;;4983281;28;20237;-81
2022/10/18 03:31:42;;;;;;;4.97;2.53;;;12.90;99.90;;;;;;4970236;28;20246;-82
2022/10/18 03:34:08;;;;;;;3.90;2.23;;;12.90;99.90;;;;;;4995552;28;20223;-81
2022/10/18 03:36:33;;;;;;;5.80;2.93;;;12.90;99.90;;;;;;4986872;28;20216;-81
2022/10/18 03:39:00;;;;;;;2.73;2.50;;;13.00;99.90;;;;;;4972448;28;20325;-80
2022/10/18 03:41:26;;;;;;;3.60;2.07;;;12.90;99.90;;;;;;4976757;28;20228;-80
2022/10/18 03:43:52;;;;;;;3.27;1.80;;;12.90;99.90;;;;;;4997443;28;20216;-80
2022/10/18 03:46:17;;;;;;;3.37;2.33;;;13.00;99.90;;;;;;4967243;28;20566;-79
2022/10/18 03:48:43;;;;;;;2.27;1.97;;;13.00;99.90;;;;;;4986691;28;20262;-83
2022/10/18 03:51:09;;;;;;;3.20;2.50;;;12.90;99.90;;;;;;4993898;28;20216;-80
2022/10/18 03:53:35;;;;;;;6.03;2.37;;;12.90;99.90;;;;;;4963920;28;20226;-80
2022/10/18 03:56:00;;;;;;;2.40;2.10;;;12.80;99.90;;;;;;4971566;28;20681;-82
2022/10/18 03:58:26;;;;;;;8.67;2.93;;;12.90;99.90;;;;;;4984146;28;20224;-81
2022/10/18 04:00:53;;;;;;;1.80;1.70;;;12.90;99.90;;;;;;4979872;28;20222;-81
2022/10/18 04:03:20;;;;;;;6.40;2.10;;;12.90;99.90;;;;;;4996000;28;20215;-82
2022/10/18 04:05:46;;;;;;;7.30;1.93;;;12.90;99.90;;;;;;4995272;28;20220;-80
2022/10/18 04:08:13;;;;;;;9.00;2.07;;;12.90;99.90;;;;;;4991134;28;20216;-80
2022/10/18 04:10:39;;;;;;;7.03;2.50;;;12.90;99.90;;;;;;4985759;28;20200;-80
2022/10/18 04:13:06;;;;;;;6.73;2.47;;;12.90;99.90;;;;;;4986056;28;20188;-79
2022/10/18 04:15:32;;;;;;;3.07;2.10;;;12.90;99.90;;;;;;5001586;28;20227;-81
2022/10/18 04:17:58;;;;;;;4.17;2.00;;;12.80;99.90;;;;;;4986853;28;20327;-83
2022/10/18 04:20:24;;;;;;;4.53;2.90;;;12.80;99.90;;;;;;4960742;28;20248;-79
2022/10/18 04:22:50;;;;;;;3.10;2.63;;;12.80;99.90;;;;;;4973265;28;20265;-80
2022/10/18 04:25:17;;;;;;;6.10;2.10;;;12.80;99.90;;;;;;4997806;28;20192;-82
2022/10/18 04:27:43;;;;;;;3.63;2.83;;;12.80;99.90;;;;;;4995789;28;20226;-81
2022/10/18 04:30:09;;;;;;;2.10;1.87;;;12.70;99.90;;;;;;5013698;28;20710;-82
2022/10/18 04:32:35;;;;;;;3.27;2.97;;;12.70;99.90;;;;;;4990245;28;20224;-81
2022/10/18 04:35:01;;;;;;;9.97;1.73;;;12.60;99.90;;;;;;4979492;28;20213;-81
2022/10/18 04:37:27;;;;;;;5.83;2.57;;;12.60;99.90;;;;;;4968018;28;20196;-83
2022/10/18 04:39:53;;;;;;;2.57;1.63;;;12.60;99.90;;;;;;4985498;28;20282;-81
2022/10/18 04:42:19;;;;;;;2.87;2.10;;;12.60;99.90;;;;;;4953166;28;20231;-82
2022/10/18 04:44:45;;;;;;;2.80;2.00;;;12.40;99.90;;;;;;4960916;28;20229;-84
2022/10/18 04:47:10;;;;;;;1.83;1.13;;;12.30;99.90;;;;;;4991064;28;20227;-83
2022/10/18 04:49:36;;;;;;;3.80;1.40;;;12.30;99.90;;;;;;4976816;28;20282;-82
2022/10/18 04:52:02;;;;;;;1.70;1.60;;;12.30;99.90;;;;;;4969465;28;20200;-82
2022/10/18 04:54:28;;;;;;;2.57;1.57;;;12.20;99.90;;;;;;4951779;28;20220;-83
2022/10/18 04:56:54;;;;;;;1.27;1.17;;;12.20;99.90;;;;;;4981796;28;20226;-84
2022/10/18 04:59:19;;;;;;;5.63;2.07;;;12.10;99.90;;;;;;4967538;28;20344;-85
2022/10/18 05:01:45;;;;;;;2.47;1.80;;;12.00;99.90;;;;;;4938914;28;20331;-84
2022/10/18 05:04:11;;;;;;;4.73;1.73;;;11.90;99.90;;;;;;4994661;28;20195;-83
2022/10/18 05:06:37;;;;;;;3.63;1.43;;;11.80;99.90;;;;;;4951038;28;20960;-83
2022/10/18 05:09:03;;;;;;;6.23;2.83;;;11.70;99.90;;;;;;4949918;28;20228;-83
2022/10/18 05:11:29;;;;;;;3.30;2.17;;;11.80;99.90;;;;;;4975115;28;20211;-83
2022/10/18 05:13:54;;;;;;;5.00;1.87;;;11.80;99.90;;;;;;4967876;28;20756;-83
2022/10/18 05:16:20;;;;;;;9.67;1.70;;;11.90;99.90;;;;;;4985311;28;20196;-82
2022/10/18 05:18:46;;;;;;;3.67;1.97;;;11.90;99.90;;;;;;4986071;28;20557;-83
2022/10/18 05:21:12;;;;;;;1.97;1.37;;;11.90;99.90;;;;;;4970139;28;20213;-84
2022/10/18 05:23:38;;;;;;;12.93;3.23;;;11.90;99.90;;;;;;4965627;28;20246;-84
2022/10/18 05:26:06;;;;;;;1.73;1.63;;;11.90;99.90;;;;;;5011279;28;20250;-81
2022/10/18 05:28:32;;;;;;;8.90;1.80;;;11.90;99.90;;;;;;4994152;28;20179;-84
2022/10/18 05:31:03;;;;;;;1.67;1.47;;;11.90;99.90;;;;;;4986651;28;20248;-81
2022/10/18 05:33:30;;;;;;;6.23;2.03;;;11.80;99.90;;;;;;4991998;28;20311;-82
2022/10/18 05:35:55;;;;;;;3.67;1.40;;;11.80;99.90;;;;;;4996160;28;20215;-83
2022/10/18 05:38:21;;;;;;;2.17;1.90;;;11.70;99.90;;;;;;4992137;28;20226;-81
2022/10/18 05:40:47;;;;;;;1.43;1.33;;;11.70;99.90;;;;;;4996573;28;20232;-82
2022/10/18 05:43:13;;;;;;;10.50;3.43;;;11.70;99.90;;;;;;4967390;28;20197;-82
2022/10/18 05:45:38;;;;;;;4.97;1.73;;;11.70;99.90;;;;;;4995264;28;20307;-81
2022/10/18 05:48:06;;;;;;;3.60;1.70;;;11.60;99.90;;;;;;4971587;28;20693;-82
2022/10/18 05:50:32;;;;;;;3.37;1.70;;;11.60;99.90;;;;;;4971881;28;20240;-85
2022/10/18 05:52:58;;;;;;;5.03;1.80;;;11.60;99.90;;;;;;4964407;28;20275;-82
2022/10/18 05:55:23;;;;;;;9.20;1.83;;;11.60;99.90;;;;;;4964713;28;20536;-83
2022/10/18 05:57:50;;;;;;;5.03;1.70;;;11.50;99.90;;;;;;5001311;28;20211;-81
2022/10/18 06:00:17;;;;;;;9.50;1.87;;;11.50;99.90;;;;;;4994033;28;20247;-84
2022/10/18 06:02:43;;;;;;;5.70;1.70;;;11.50;99.90;;;;;;4976117;28;20279;-80
2022/10/18 06:05:09;;;;;;;2.47;1.97;;;11.50;99.90;;;;;;4932997;28;20209;-83
2022/10/18 06:07:34;;;;;;;2.57;2.37;;;11.50;99.90;;;;;;4967558;28;20713;-84
2022/10/18 06:10:00;;;;;;;10.00;1.83;;;11.50;99.90;;;;;;4984494;28;20200;-83
2022/10/18 06:12:26;;;;;;;2.17;1.97;;;11.50;99.90;;;;;;4935157;28;20228;-83
2022/10/18 06:14:52;;;;;;;7.10;1.53;;;11.50;99.90;;;;;;4964535;28;20509;-82
2022/10/18 06:17:17;;;;;;;4.53;1.53;;;11.50;99.90;;;;;;4976111;28;20237;-83
2022/10/18 06:19:43;;;;;;;1.87;1.40;;;11.50;99.90;;;;;;4992717;28;20708;-84
2022/10/18 06:22:10;;;;;;;1.50;1.20;;;11.50;99.90;;;;;;4979474;28;20215;-83
2022/10/18 06:24:36;;;;;;;1.77;1.50;;;11.40;99.90;;;;;;4975963;28;20220;-81
2022/10/18 06:27:08;;;;;;;1.63;1.50;;;11.40;99.90;;;;;;4986818;28;20251;-81
2022/10/18 06:29:38;;;;;;;1.90;1.40;;;11.30;99.90;;;;;;4975303;28;20231;-83
2022/10/18 06:32:05;;;;;;;4.97;1.73;;;11.30;99.90;;;;;;4961988;28;20716;-85
2022/10/18 06:34:31;;;;;;;2.90;1.57;;;11.40;99.90;;;;;;4966695;28;20203;-85
2022/10/18 06:36:57;;;;;;;1.30;1.20;;;11.40;99.90;;;;;;4968341;28;20203;-83
2022/10/18 06:39:23;;;;;;;7.37;1.30;;;11.40;99.90;;;;;;4985266;28;20311;-85
2022/10/18 06:41:49;;;;;;;3.63;1.50;;;11.50;99.90;;;;;;4988466;28;20315;-82
2022/10/18 06:44:16;;;;;;;4.70;2.87;;;11.50;99.90;;;;;;4949243;28;20977;-82
2022/10/18 06:46:43;;;;;;;1.87;1.77;;;11.70;99.90;;;;;;4969077;28;20374;-82
2022/10/18 06:49:09;;;;;;;3.03;2.23;;;11.80;99.90;;;;;;5000775;28;20240;-84
2022/10/18 06:51:35;;;;;;;3.40;1.20;;;11.70;99.90;;;;;;4970664;28;20222;-84
2022/10/18 06:54:00;;;;;;;2.13;1.97;;;11.70;99.90;;;;;;4991535;28;20227;-83
2022/10/18 06:56:26;;;;;;;2.10;1.90;;;11.90;99.90;;;;;;4989775;28;20223;-85
2022/10/18 06:58:52;;;;;;;4.00;2.70;;;12.10;99.90;;;;;;4963920;28;20674;-83
2022/10/18 07:01:18;;;;;;;9.87;3.37;;;12.60;99.90;;;;;;4965271;28;20238;-83
2022/10/18 07:03:45;;;;;;;4.20;1.73;;;13.20;99.90;;;;;;4984789;28;20307;-82
2022/10/18 07:06:13;;;;;;;1.50;1.40;;;13.50;99.90;;;;;;4991194;28;20238;-81
2022/10/18 07:08:39;;;;;;;3.07;2.77;;;13.40;99.90;;;;;;4976458;28;20227;-83
2022/10/18 07:11:06;;;;;;;3.70;2.83;;;14.10;99.90;;;;;;4974970;28;20224;-82
2022/10/18 07:13:33;;;;;;;5.10;2.63;;;14.10;99.90;;;;;;5007385;28;20219;-82
2022/10/18 07:16:08;;;;;;;8.93;3.00;;;14.20;99.90;;;;;;4983031;28;20185;-83
2022/10/18 07:18:39;;;;;;;4.40;2.27;;;13.90;99.90;;;;;;4965539;28;20717;-83
2022/10/18 07:21:10;;;;;;;10.97;2.80;;;14.10;99.90;;;;;;4980403;28;20253;-83
2022/10/18 07:23:39;;;;;;;7.53;2.43;;;14.50;99.90;;;;;;4975848;28;20486;-83
2022/10/18 07:26:13;;;;;;;9.50;2.40;;;14.70;99.90;;;;;;4984217;28;20223;-83
2022/10/18 07:28:39;;;;;;;7.23;2.23;;;14.60;99.90;;;;;;4984478;28;20649;-83
2022/10/18 07:31:06;;;;;;;9.30;2.20;;;14.60;99.90;;;;;;4983425;28;20200;-83
2022/10/18 07:33:33;;;;;;;2.00;1.43;;;14.70;99.90;;;;;;4984275;28;20220;-82
2022/10/18 07:36:07;;;;;;;2.73;1.67;;;15.50;99.90;;;;;;4970112;28;20681;-82
2022/10/18 07:38:34;;;;;;;7.93;1.60;;;15.90;99.90;;;;;;4968303;28;20220;-82
2022/10/18 07:41:00;;;;;;;9.17;2.53;;;16.20;99.90;;;;;;4976260;28;20243;-83
2022/10/18 07:43:26;;;;;;;4.33;1.60;;;16.90;99.90;;;;;;4997435;28;20196;-83
2022/10/18 07:45:58;;;;;;;10.63;2.17;;;17.70;99.90;;;;;;5013042;28;20239;-84
2022/10/18 07:48:24;;;;;;;13.00;1.73;;;18.80;99.90;;;;;;5015234;28;20305;-84
2022/10/18 07:50:50;;;;;;;6.00;2.23;;;19.20;99.90;;;;;;4994578;28;20353;-82
2022/10/18 07:53:16;;;;;;;7.03;2.63;;;19.50;99.90;;;;;;4971920;28;20250;-84
2022/10/18 07:55:43;;;;;;;15.70;3.07;;;21.00;99.90;;;;;;4973610;28;20669;-84
2022/10/18 07:58:10;;;;;;;10.80;3.20;;;21.70;99.90;;;;;;4981643;28;20327;-83
2022/10/18 08:00:35;;;;;;;4.23;3.03;;;23.00;99.90;;;;;;5018533;28;20266;-85
2022/10/18 08:03:01;;;;;;;10.87;2.10;;;24.00;99.90;;;;;;4990321;28;20212;-85
2022/10/18 08:05:27;;;;;;;4.57;1.70;;;24.80;99.90;;;;;;4980987;28;20878;-85
2022/10/18 08:07:53;;;;;;;7.30;2.10;;;24.70;99.90;;;;;;5010714;28;20215;-87
2022/10/18 08:10:20;;;;;;;4.00;1.37;;;24.70;99.90;;;;;;4994898;28;20192;-85
2022/10/18 08:12:46;;;;;;;5.80;1.20;;;24.80;99.90;;;;;;4987073;28;20254;-84
2022/10/18 08:15:12;;;;;;;9.47;1.73;;;25.70;99.90;;;;;;4994027;28;20653;-85
2022/10/18 08:17:38;;;;;;;0.90;0.90;;;25.50;99.90;;;;;;4991219;28;20717;-85
2022/10/18 08:20:04;;;;;;;3.90;1.10;;;25.80;99.90;;;;;;4984826;28;20308;-84
2022/10/18 08:22:30;;;;;;;5.43;1.47;;;25.10;99.90;;;;;;4988445;28;20282;-84
2022/10/18 08:24:56;;;;;;;8.37;1.57;;;25.80;99.90;;;;;;4994135;28;20290;-83
2022/10/18 08:27:23;;;;;;;2.43;0.90;;;25.20;99.90;;;;;;4987688;28;21149;-84
2022/10/18 08:29:49;;;;;;;1.77;1.07;;;24.40;99.90;;;;;;4973596;28;20690;-85
2022/10/18 08:32:15;;;;;;;4.97;1.30;;;23.00;99.90;;;;;;4961340;28;20219;-85
2022/10/18 08:34:40;;;;;;;3.60;1.07;;;21.60;99.90;;;;;;4995049;28;20305;-83
2022/10/18 08:37:06;;;;;;;3.93;1.23;;;20.30;99.90;;;;;;4996241;28;20238;-85
2022/10/18 08:39:32;;;;;;;5.67;1.30;;;19.60;99.90;;;;;;4969265;28;20247;-83
2022/10/18 08:42:07;;;;;;;10.23;1.13;;;18.90;99.90;;;;;;5001705;28;20564;-84
2022/10/18 08:44:46;;;;;;;3.33;1.00;;;18.90;99.90;;;;;;4993809;28;20215;-84
2022/10/18 08:47:29;;;;;;;7.50;1.93;;;18.40;99.90;;;;;;4996239;28;20216;-86
2022/10/18 08:50:18;;;;;;;2.20;1.00;;;18.20;99.90;;;;;;4996983;28;20238;-84
2022/10/18 08:53:11;;;;;;;9.20;1.63;;;17.80;99.90;;;;;;4993618;28;20603;-85
2022/10/18 08:55:59;;;;;;;4.43;2.40;;;17.90;99.90;;;;;;4986158;28;20214;-84
2022/10/18 08:58:30;;;;;;;7.07;2.73;;;17.40;99.90;;;;;;4987788;28;20196;-86
2022/10/18 09:01:26;;;;;;;8.97;2.27;;;17.50;99.90;;;;;;4995764;28;20226;-87
2022/10/18 09:04:04;;;;;;;7.00;1.80;;;17.30;99.90;;;;;;4989154;28;20239;-85
2022/10/18 09:06:54;;;;;;;4.13;1.50;;;17.20;99.90;;;;;;4994655;28;20714;-84
2022/10/18 09:09:38;;;;;;;10.03;2.37;;;17.10;99.90;;;;;;4988147;28;20223;-84
2022/10/18 09:12:42;;;;;;;5.37;0.87;;;17.10;99.90;;;;;;4985715;28;20487;-84
2022/10/18 09:15:32;;;;;;;3.57;1.77;;;16.90;99.90;;;;;;4971897;28;20554;-84
2022/10/18 09:18:25;;;;;;;1.70;1.00;;;16.80;99.90;;;;;;4971642;28;20224;-86
2022/10/18 09:20:57;;;;;;;4.57;1.23;;;16.80;99.90;;;;;;4980026;28;20604;-85
2022/10/18 09:23:43;;;;;;;2.80;0.50;;;16.90;99.90;;;;;;4988473;28;20240;-84
2022/10/18 09:26:22;;;;;;;1.37;1.00;;;16.80;99.90;;;;;;4992118;28;20231;-84
2022/10/18 09:29:15;;;;;;;3.27;1.03;;;16.80;99.90;;;;;;4988291;28;20298;-84
2022/10/18 09:31:53;;;;;;;6.53;1.17;;;16.80;99.90;;;;;;4969094;28;20227;-85
2022/10/18 09:34:50;;;;;;;1.33;0.80;;;16.80;99.90;;;;;;4985196;28;20278;-83
2022/10/18 09:37:18;;;;;;;10.13;1.10;;;16.80;99.90;;;;;;4987308;28;20811;-83
2022/10/18 09:39:47;;;;;;;2.27;0.97;;;16.70;99.90;;;;;;4993224;28;20239;-83
2022/10/18 09:42:25;;;;;;;5.70;1.10;;;16.70;99.90;;;;;;4992361;28;20230;-84
2022/10/18 09:45:23;;;;;;;1.67;0.90;;;16.80;99.90;;;;;;5010405;28;20764;-87
2022/10/18 09:48:07;;;;;;;2.00;0.97;;;16.60;99.90;;;;;;4993189;28;20220;-85
2022/10/18 09:50:54;;;;;;;4.50;1.77;;;16.60;99.90;;;;;;4996421;28;20330;-86
2022/10/18 09:53:34;;;;;;;10.90;1.40;;;16.60;99.90;;;;;;5009603;28;20314;-85
2022/10/18 09:56:27;;;;;;;1.57;1.47;;;16.80;99.90;;;;;;5011401;28;20216;-85
2022/10/18 09:58:53;;;;;;;4.77;1.03;;;16.80;99.90;;;;;;4994723;28;20219;-85
2022/10/18 10:01:25;;;;;;;5.90;2.10;;;16.80;99.90;;;;;;4976458;28;20747;-87
2022/10/18 10:03:51;;;;;;;6.07;1.67;;;16.80;99.90;;;;;;4998190;28;20232;-83
2022/10/18 10:06:30;;;;;;;4.87;0.93;;;17.00;99.90;;;;;;4993749;28;20247;-83
2022/10/18 10:09:04;;;;;;;4.90;0.80;;;17.10;99.90;;;;;;4994518;28;20221;-86
2022/10/18 10:11:39;;;;;;;5.13;1.03;;;17.00;99.90;;;;;;4993895;28;20207;-85
2022/10/18 10:14:16;;;;;;;1.27;0.80;;;16.90;99.90;;;;;;4994382;28;20226;-86
2022/10/18 10:16:46;;;;;;;3.70;1.27;;;16.50;99.90;;;;;;4991883;28;20222;-84
2022/10/18 10:19:53;;;;;;;3.00;0.60;;;16.40;99.90;;;;;;4993127;28;20661;-83
2022/10/18 10:22:27;;;;;;;2.80;0.80;;;16.40;99.90;;;;;;4964461;28;20252;-81
2022/10/18 10:24:54;;;;;;;3.50;0.83;;;16.20;99.90;;;;;;4966540;28;20193;-83
2022/10/18 10:27:42;;;;;;;1.53;0.80;;;16.20;99.90;;;;;;4964826;28;20212;-85
2022/10/18 10:30:35;;;;;;;4.90;1.00;;;16.90;99.90;;;;;;4966631;28;20239;-83
2022/10/18 10:33:01;;;;;;;1.47;0.90;;;17.90;99.90;;;;;;4966205;28;20224;-86
2022/10/18 10:35:32;;;;;;;2.97;1.57;;;18.30;99.90;;;;;;4973404;28;20659;-84
2022/10/18 10:37:58;;;;;;;1.00;0.93;;;18.20;99.90;;;;;;4986764;28;20732;-82
2022/10/18 10:40:29;;;;;;;6.40;0.97;;;17.90;99.90;;;;;;5007484;28;20216;-81
2022/10/18 10:43:02;;;;;;;2.50;0.90;;;17.50;99.90;;;;;;5000998;28;20230;-83
2022/10/18 10:45:35;;;;;;;2.47;0.70;;;17.00;99.90;;;;;;4987835;28;20220;-84
2022/10/18 10:48:08;;;;;;;0.73;0.73;;;17.00;99.90;;;;;;5004788;28;20283;-81
2022/10/18 10:50:57;;;;;;;4.77;0.77;;;17.70;99.90;;;;;;4987950;28;20226;-84
2022/10/18 10:53:25;;;;;;;3.17;1.00;;;17.90;99.90;;;;;;4984789;28;20773;-85
2022/10/18 10:55:55;;;;;;;14.33;2.30;;;18.00;99.90;;;;;;4985245;28;20552;-86
2022/10/18 10:58:21;;;;;;;1.73;0.80;;;18.60;99.90;;;;;;4985492;28;20457;-87
2022/10/18 11:00:46;;;;;;;2.70;0.90;;;19.00;99.90;;;;;;4968194;28;20216;-85
2022/10/18 11:03:19;;;;;;;0.80;0.80;;;19.10;99.90;;;;;;4983119;28;20227;-85
2022/10/18 11:05:52;;;;;;;7.50;1.70;;;18.30;99.90;;;;;;4984292;28;20303;-86
2022/10/18 11:08:25;;;;;;;5.17;0.60;;;18.60;99.90;;;;;;4975291;28;20248;-83
2022/10/18 11:10:53;;;;;;;2.20;0.87;;;18.60;99.90;;;;;;4971970;28;20302;-85
2022/10/18 11:13:22;;;;;;;4.67;1.20;;;18.50;99.90;;;;;;4998655;28;20681;-81
2022/10/18 11:16:05;;;;;;;2.63;0.70;;;18.30;99.90;;;;;;5012116;28;20192;-83
2022/10/18 11:18:35;;;;;;;4.63;0.90;;;18.10;99.90;;;;;;4985274;28;20235;-84
2022/10/18 11:21:22;;;;;;;3.30;0.90;;;18.40;99.90;;;;;;4973878;28;20224;-85
2022/10/18 11:23:48;;;;;;;2.00;0.90;;;19.00;99.90;;;;;;4981375;28;20215;-84
2022/10/18 11:26:40;;;;;;;3.43;1.00;;;19.20;99.90;;;;;;4979577;28;20217;-86
2022/10/18 11:29:28;;;;;;;6.90;1.43;;;19.20;99.90;;;;;;4973581;28;20231;-85
2022/10/18 11:32:22;;;;;;;7.60;1.30;;;19.60;99.90;;;;;;4988517;28;20223;-84
2022/10/18 11:35:04;;;;;;;5.53;1.10;;;19.40;99.90;;;;;;5003096;28;20795;-86
2022/10/18 11:37:57;;;;;;;1.10;0.93;;;19.80;99.90;;;;;;4997780;28;20188;-84
2022/10/18 11:40:38;;;;;;;3.90;1.03;;;20.10;99.90;;;;;;4995023;28;20249;-86
2022/10/18 11:43:42;;;;;;;3.37;1.00;;;19.80;99.90;;;;;;4987934;28;20196;-83
2022/10/18 11:46:26;;;;;;;5.33;1.17;;;19.20;99.90;;;;;;4946953;29;20320;-84
2022/10/18 11:49:05;;;;;;;2.40;0.90;;;19.30;99.90;;;;;;4984968;28;20239;-84
2022/10/18 11:51:47;;;;;;;3.97;0.90;;;19.20;99.90;;;;;;4995624;28;20246;-86
2022/10/18 11:54:33;;;;;;;7.33;1.03;;;19.40;99.90;;;;;;4988516;28;20243;-83
2022/10/18 11:57:16;;;;;;;1.57;0.80;;;19.60;99.90;;;;;;4990808;28;20315;-84
2022/10/18 12:00:32;;;;;;;3.20;1.10;;;19.60;99.90;;;;;;4994436;28;20230;-84
2022/10/18 12:03:25;;;;;;;5.27;1.50;;;19.20;99.90;;;;;;5004619;28;20227;-85
2022/10/18 12:05:54;;;;;;;3.03;1.27;;;19.30;99.90;;;;;;5006420;28;20234;-85
2022/10/18 12:08:40;;;;;;;3.33;1.20;;;19.10;99.90;;;;;;4977698;28;20212;-83
2022/10/18 12:11:25;;;;;;;1.60;0.93;;;18.90;99.90;;;;;;4974826;28;20231;-84
2022/10/18 12:13:59;;;;;;;3.63;1.40;;;18.90;99.90;;;;;;4987037;28;20220;-86
2022/10/18 12:16:29;;;;;;;8.63;1.43;;;19.10;99.90;;;;;;4986193;28;20180;-83
2022/10/18 12:18:58;;;;;;;5.17;1.07;;;19.20;99.90;;;;;;4987692;28;20188;-85
2022/10/18 12:21:27;;;;;;;3.80;1.33;;;18.80;99.90;;;;;;4986011;28;20297;-85
2022/10/18 12:23:58;;;;;;;3.63;1.13;;;18.00;99.90;;;;;;4979900;28;20303;-85
2022/10/18 12:26:27;;;;;;;3.23;1.73;;;17.20;99.90;;;;;;4986004;28;20288;-84
2022/10/18 12:29:14;;;;;;;3.07;1.27;;;17.00;99.90;;;;;;4987726;28;20724;-86
2022/10/18 12:31:46;;;;;;;4.23;1.17;;;17.00;99.90;;;;;;4997380;28;20226;-83
2022/10/18 12:34:21;;;;;;;4.63;1.10;;;17.20;99.90;;;;;;4997019;28;20649;-83
2022/10/18 12:37:15;;;;;;;1.03;0.80;;;17.20;99.90;;;;;;4995757;28;20222;-83
2022/10/18 12:39:52;;;;;;;0.60;0.60;;;17.30;99.90;;;;;;4998149;28;20644;-84
2022/10/18 12:42:21;;;;;;;2.90;1.10;;;17.50;99.90;;;;;;4988295;28;20226;-85
2022/10/18 12:44:48;;;;;;;6.10;1.70;;;17.50;99.90;;;;;;4985256;28;20222;-85
2022/10/18 12:47:24;;;;;;;4.00;1.07;;;17.30;99.90;;;;;;5004323;28;20970;-84
2022/10/18 12:50:01;;;;;;;0.50;0.50;;;17.10;99.90;;;;;;4993558;28;20347;-81
2022/10/18 12:52:32;;;;;;;6.23;1.67;;;17.00;99.90;;;;;;4986305;28;20191;-83
2022/10/18 12:55:04;;;;;;;3.07;1.03;;;17.10;99.90;;;;;;4987295;28;20607;-81
2022/10/18 12:57:51;;;;;;;4.37;0.93;;;17.30;99.90;;;;;;5008354;28;20231;-83
2022/10/18 13:00:28;;;;;;;0.80;0.80;;;17.40;99.90;;;;;;4987820;28;20286;-85
2022/10/18 13:03:15;;;;;;;2.37;0.80;;;17.50;99.90;;;;;;4972336;28;20220;-84
2022/10/18 13:05:47;;;;;;;4.00;1.23;;;17.70;99.90;;;;;;4979049;28;20231;-85
2022/10/18 13:08:39;;;;;;;8.87;1.40;;;17.70;99.90;;;;;;4987053;28;20224;-85